VIR47KY EGLL-CYYZ
Flight info
| Callsign | VIR47KY |
|---|---|
| Flight time | N/A |
| Altitude | 36000 |
| Route | ULTIB T420 TNT UL28 PENIL M144 BAGSO DCT DOGAL/M085F380 DCT 54N020W 53N030W 5130N04000W 50N050W DCT ELSIR/N0488F380 N412A MIILS/N0496F400 DCT VILRO DCT SAVEX Q806 TUKIR RAGID6 |
| Aircraft | A35K/H-SDE2E3GHIJ3J4J5LM1ORWXY/LB1D1 |
Departure
| Time | 2026-05-07 18:04 |
|---|---|
| Airport | London Heathrow Airport (EGLL) |
Arrival
| Time | N/A |
|---|---|
| Airport | Toronto Pearson International Airport (CYYZ) |
| Time | Latitude | Longitude | Altitude | Speed | Heading |
|---|---|---|---|---|---|
| 2026-05-07 17:35 | 51.47265 | -0.46308 | 92 ft | 0 kts | 56° |
| 2026-05-07 17:51 | 51.47257 | -0.46326 | 93 ft | 4 kts | 56° |
| 2026-05-07 17:51 | 51.47242 | -0.46360 | 92 ft | 2 kts | 56° |
| 2026-05-07 17:51 | 51.47229 | -0.46386 | 90 ft | 4 kts | 24° |
| 2026-05-07 17:52 | 51.47207 | -0.46387 | 90 ft | 4 kts | 328° |
| 2026-05-07 17:52 | 51.47185 | -0.46364 | 90 ft | 4 kts | 326° |
| 2026-05-07 17:52 | 51.47173 | -0.46352 | 93 ft | 0 kts | 326° |
| 2026-05-07 17:55 | 51.47178 | -0.46356 | 92 ft | 2 kts | 326° |
| 2026-05-07 17:55 | 51.47201 | -0.46382 | 95 ft | 6 kts | 324° |
| 2026-05-07 17:55 | 51.47230 | -0.46439 | 97 ft | 7 kts | 290° |
| 2026-05-07 17:56 | 51.47238 | -0.46529 | 93 ft | 9 kts | 272° |
| 2026-05-07 17:56 | 51.47239 | -0.46647 | 92 ft | 12 kts | 270° |
| 2026-05-07 17:56 | 51.47239 | -0.46788 | 93 ft | 13 kts | 270° |
| 2026-05-07 17:56 | 51.47191 | -0.46866 | 97 ft | 11 kts | 190° |
| 2026-05-07 17:57 | 51.47112 | -0.46865 | 92 ft | 12 kts | 179° |
| 2026-05-07 17:57 | 51.47053 | -0.46863 | 94 ft | 13 kts | 179° |
| 2026-05-07 17:57 | 51.46919 | -0.46860 | 93 ft | 15 kts | 180° |
| 2026-05-07 17:57 | 51.46808 | -0.46861 | 94 ft | 17 kts | 180° |
| 2026-05-07 17:58 | 51.46696 | -0.46864 | 96 ft | 13 kts | 191° |
| 2026-05-07 17:58 | 51.46659 | -0.46971 | 96 ft | 12 kts | 264° |
| 2026-05-07 17:58 | 51.46657 | -0.47126 | 95 ft | 16 kts | 269° |
| 2026-05-07 17:58 | 51.46656 | -0.47311 | 95 ft | 18 kts | 269° |
| 2026-05-07 17:59 | 51.46655 | -0.47516 | 94 ft | 19 kts | 269° |
| 2026-05-07 17:59 | 51.46654 | -0.47740 | 92 ft | 21 kts | 270° |
| 2026-05-07 17:59 | 51.46654 | -0.47954 | 95 ft | 11 kts | 270° |
| 2026-05-07 17:59 | 51.46654 | -0.48046 | 92 ft | 0 kts | 270° |
| 2026-05-07 18:00 | 51.46654 | -0.48065 | 92 ft | 4 kts | 270° |
| 2026-05-07 18:00 | 51.46653 | -0.48212 | 95 ft | 20 kts | 269° |
| 2026-05-07 18:00 | 51.46652 | -0.48443 | 95 ft | 22 kts | 270° |
| 2026-05-07 18:00 | 51.46652 | -0.48640 | 95 ft | 10 kts | 270° |
| 2026-05-07 18:01 | 51.46629 | -0.48740 | 97 ft | 7 kts | 221° |
| 2026-05-07 18:01 | 51.46613 | -0.48755 | 95 ft | 0 kts | 206° |
| 2026-05-07 18:01 | 51.46611 | -0.48756 | 95 ft | 1 kts | 206° |
| 2026-05-07 18:01 | 51.46581 | -0.48776 | 96 ft | 11 kts | 199° |
| 2026-05-07 18:02 | 51.46478 | -0.48627 | 95 ft | 12 kts | 91° |
| 2026-05-07 18:02 | 51.46478 | -0.48597 | 94 ft | 0 kts | 90° |
| 2026-05-07 18:03 | 51.46478 | -0.48555 | 93 ft | 18 kts | 89° |
| 2026-05-07 18:03 | 51.46480 | -0.47972 | 93 ft | 86 kts | 90° |
| 2026-05-07 18:03 | 51.46485 | -0.46686 | 98 ft | 143 kts | 90° |
| 2026-05-07 18:03 | 51.46528 | -0.44885 | 443 ft | 161 kts | 88° |
| 2026-05-07 18:04 | 51.46600 | -0.43161 | 1246 ft | 155 kts | 88° |
| 2026-05-07 18:04 | 51.46946 | -0.41412 | 1554 ft | 181 kts | 56° |
| 2026-05-07 18:04 | 51.47823 | -0.39810 | 1939 ft | 202 kts | 46° |
| 2026-05-07 18:04 | 51.48841 | -0.38075 | 2313 ft | 224 kts | 49° |
| 2026-05-07 18:05 | 51.49918 | -0.36131 | 2694 ft | 243 kts | 49° |
| 2026-05-07 18:05 | 51.51050 | -0.34010 | 3270 ft | 254 kts | 51° |
| 2026-05-07 18:05 | 51.51931 | -0.31533 | 3998 ft | 257 kts | 69° |
| 2026-05-07 18:05 | 51.52592 | -0.28847 | 4761 ft | 259 kts | 65° |
| 2026-05-07 18:06 | 51.53736 | -0.26614 | 5455 ft | 263 kts | 37° |
| 2026-05-07 18:06 | 51.55381 | -0.25427 | 5885 ft | 266 kts | 11° |
| 2026-05-07 18:06 | 51.57228 | -0.25526 | 5998 ft | 268 kts | 344° |
| 2026-05-07 18:06 | 51.58895 | -0.26885 | 5999 ft | 269 kts | 324° |
| 2026-05-07 18:07 | 51.60388 | -0.28722 | 5996 ft | 271 kts | 321° |
| 2026-05-07 18:07 | 51.61836 | -0.30605 | 6022 ft | 271 kts | 321° |
| 2026-05-07 18:07 | 51.63310 | -0.32535 | 6019 ft | 272 kts | 321° |
| 2026-05-07 18:07 | 51.64776 | -0.34458 | 6021 ft | 272 kts | 321° |
| 2026-05-07 18:08 | 51.66249 | -0.36390 | 6019 ft | 272 kts | 321° |
| 2026-05-07 18:08 | 51.67703 | -0.38300 | 6233 ft | 274 kts | 321° |
| 2026-05-07 18:08 | 51.69183 | -0.40247 | 6910 ft | 275 kts | 321° |
| 2026-05-07 18:08 | 51.70683 | -0.42194 | 7757 ft | 277 kts | 321° |
| 2026-05-07 18:09 | 51.72202 | -0.44133 | 8616 ft | 279 kts | 321° |
| 2026-05-07 18:09 | 51.73730 | -0.46059 | 9441 ft | 283 kts | 321° |
| 2026-05-07 18:09 | 51.75418 | -0.47765 | 10205 ft | 289 kts | 329° |
| 2026-05-07 18:09 | 51.77253 | -0.49327 | 10630 ft | 307 kts | 332° |
| 2026-05-07 18:10 | 51.79229 | -0.50895 | 10982 ft | 326 kts | 333° |
| 2026-05-07 18:10 | 51.81343 | -0.52497 | 11365 ft | 344 kts | 334° |
| 2026-05-07 18:10 | 51.83560 | -0.54141 | 11862 ft | 356 kts | 334° |
| 2026-05-07 18:10 | 51.85812 | -0.55799 | 12530 ft | 362 kts | 334° |
| 2026-05-07 18:11 | 51.88127 | -0.57510 | 13220 ft | 368 kts | 334° |
| 2026-05-07 18:11 | 51.89677 | -0.58661 | 13665 ft | 372 kts | 334° |
| 2026-05-07 18:11 | 51.92814 | -0.61006 | 14530 ft | 377 kts | 334° |
| 2026-05-07 18:11 | 51.95184 | -0.62787 | 15217 ft | 379 kts | 333° |
| 2026-05-07 18:12 | 51.97593 | -0.64603 | 15898 ft | 382 kts | 333° |
| 2026-05-07 18:12 | 52.00019 | -0.66436 | 16591 ft | 384 kts | 333° |
| 2026-05-07 18:12 | 52.02450 | -0.68274 | 17275 ft | 387 kts | 333° |
| 2026-05-07 18:12 | 52.04874 | -0.70111 | 18011 ft | 390 kts | 333° |
| 2026-05-07 18:13 | 52.07349 | -0.71988 | 18666 ft | 394 kts | 333° |
| 2026-05-07 18:13 | 52.09853 | -0.73889 | 19310 ft | 397 kts | 333° |
| 2026-05-07 18:13 | 52.12375 | -0.75805 | 19940 ft | 400 kts | 333° |
| 2026-05-07 18:13 | 52.14904 | -0.77728 | 20556 ft | 403 kts | 333° |
| 2026-05-07 18:14 | 52.17437 | -0.79657 | 21178 ft | 406 kts | 333° |
| 2026-05-07 18:14 | 52.20008 | -0.81618 | 21800 ft | 410 kts | 332° |
| 2026-05-07 18:14 | 52.22610 | -0.83604 | 22389 ft | 413 kts | 332° |
| 2026-05-07 18:14 | 52.24321 | -0.85007 | 22775 ft | 414 kts | 328° |
| 2026-05-07 18:15 | 52.27656 | -0.88125 | 23590 ft | 418 kts | 327° |
| 2026-05-07 18:15 | 52.29348 | -0.89768 | 23925 ft | 421 kts | 327° |
| 2026-05-07 18:15 | 52.32686 | -0.93074 | 24535 ft | 425 kts | 326° |
| 2026-05-07 18:15 | 52.35220 | -0.95613 | 25048 ft | 428 kts | 326° |
| 2026-05-07 18:16 | 52.36906 | -0.97306 | 25378 ft | 430 kts | 326° |
| 2026-05-07 18:16 | 52.39472 | -0.99885 | 25860 ft | 433 kts | 326° |
| 2026-05-07 18:16 | 52.42054 | -1.02476 | 26385 ft | 435 kts | 326° |
| 2026-05-07 18:16 | 52.44650 | -1.05082 | 26857 ft | 438 kts | 326° |
| 2026-05-07 18:17 | 52.47265 | -1.07706 | 27335 ft | 441 kts | 326° |
| 2026-05-07 18:17 | 52.49866 | -1.10319 | 27800 ft | 444 kts | 326° |
| 2026-05-07 18:17 | 52.52512 | -1.12978 | 28260 ft | 447 kts | 326° |
| 2026-05-07 18:17 | 52.55190 | -1.15676 | 28563 ft | 454 kts | 326° |
| 2026-05-07 18:18 | 52.57897 | -1.18405 | 28989 ft | 457 kts | 326° |
| 2026-05-07 18:18 | 52.60612 | -1.21145 | 29443 ft | 459 kts | 326° |
| 2026-05-07 18:18 | 52.63344 | -1.23906 | 29875 ft | 462 kts | 326° |
| 2026-05-07 18:18 | 52.66066 | -1.26661 | 30241 ft | 465 kts | 326° |
| 2026-05-07 18:19 | 52.68838 | -1.29472 | 30570 ft | 467 kts | 326° |
| 2026-05-07 18:19 | 52.71624 | -1.32298 | 30929 ft | 470 kts | 326° |
| 2026-05-07 18:19 | 52.74419 | -1.35137 | 31265 ft | 472 kts | 326° |
| 2026-05-07 18:19 | 52.77193 | -1.37967 | 31522 ft | 477 kts | 327° |
| 2026-05-07 18:20 | 52.80044 | -1.40884 | 31638 ft | 483 kts | 327° |
| 2026-05-07 18:20 | 52.82919 | -1.43827 | 31958 ft | 485 kts | 327° |
| 2026-05-07 18:20 | 52.85795 | -1.46775 | 32276 ft | 486 kts | 327° |
| 2026-05-07 18:20 | 52.88677 | -1.49732 | 32591 ft | 488 kts | 327° |
| 2026-05-07 18:21 | 52.91541 | -1.52675 | 32889 ft | 490 kts | 326° |
| 2026-05-07 18:21 | 52.94425 | -1.55642 | 33362 ft | 487 kts | 326° |
| 2026-05-07 18:21 | 52.97302 | -1.58607 | 33772 ft | 486 kts | 326° |
| 2026-05-07 18:21 | 53.00175 | -1.61573 | 34102 ft | 486 kts | 326° |
| 2026-05-07 18:22 | 53.03065 | -1.64564 | 34215 ft | 490 kts | 326° |
| 2026-05-07 18:22 | 53.04991 | -1.66559 | 34333 ft | 492 kts | 326° |
| 2026-05-07 18:22 | 53.08878 | -1.70592 | 34742 ft | 490 kts | 326° |
| 2026-05-07 18:22 | 53.11769 | -1.73597 | 35049 ft | 489 kts | 326° |
| 2026-05-07 18:23 | 53.14619 | -1.76568 | 35316 ft | 489 kts | 326° |
| 2026-05-07 18:23 | 53.17506 | -1.79580 | 35569 ft | 489 kts | 326° |
| 2026-05-07 18:23 | 53.20315 | -1.82777 | 35792 ft | 487 kts | 320° |
| 2026-05-07 18:23 | 53.22832 | -1.86552 | 35981 ft | 485 kts | 311° |
| 2026-05-07 18:24 | 53.24973 | -1.90921 | 36026 ft | 487 kts | 302° |
| 2026-05-07 18:24 | 53.28280 | -2.00800 | 36019 ft | 491 kts | 295° |
| 2026-05-07 18:25 | 53.31302 | -2.11040 | 36021 ft | 488 kts | 294° |
| 2026-05-07 18:25 | 53.34272 | -2.21262 | 36020 ft | 487 kts | 294° |
| 2026-05-07 18:26 | 53.36744 | -2.31703 | 36020 ft | 484 kts | 286° |
| 2026-05-07 18:26 | 53.38845 | -2.42467 | 36020 ft | 484 kts | 285° |
| 2026-05-07 18:27 | 53.40875 | -2.53242 | 36016 ft | 484 kts | 285° |
| 2026-05-07 18:27 | 53.42878 | -2.63937 | 36010 ft | 483 kts | 285° |
| 2026-05-07 18:28 | 53.44888 | -2.74676 | 35998 ft | 482 kts | 285° |
| 2026-05-07 18:28 | 53.46879 | -2.85360 | 35999 ft | 481 kts | 285° |
| 2026-05-07 18:29 | 53.48881 | -2.96134 | 35996 ft | 481 kts | 285° |
| 2026-05-07 18:29 | 53.50859 | -3.06869 | 35996 ft | 481 kts | 285° |
| 2026-05-07 18:30 | 53.52813 | -3.17548 | 35995 ft | 479 kts | 284° |
| 2026-05-07 18:30 | 53.54764 | -3.28267 | 35996 ft | 478 kts | 284° |
| 2026-05-07 18:31 | 53.56654 | -3.38705 | 35992 ft | 478 kts | 284° |
| 2026-05-07 18:31 | 53.58578 | -3.49372 | 35990 ft | 478 kts | 284° |
| 2026-05-07 18:32 | 53.60448 | -3.59808 | 35991 ft | 478 kts | 284° |
| 2026-05-07 18:32 | 53.61747 | -3.70717 | 35992 ft | 473 kts | 274° |
| 2026-05-07 18:33 | 53.62294 | -3.81762 | 35988 ft | 472 kts | 272° |
| 2026-05-07 18:33 | 53.62725 | -3.92748 | 35987 ft | 472 kts | 271° |
| 2026-05-07 18:34 | 53.63146 | -4.03742 | 35988 ft | 472 kts | 271° |
| 2026-05-07 18:34 | 53.63572 | -4.14808 | 35988 ft | 472 kts | 271° |
| 2026-05-07 18:35 | 53.63989 | -4.25789 | 35982 ft | 471 kts | 271° |
| 2026-05-07 18:35 | 53.64399 | -4.36810 | 35977 ft | 471 kts | 271° |
| 2026-05-07 18:36 | 53.64801 | -4.47856 | 35978 ft | 471 kts | 271° |
| 2026-05-07 18:36 | 53.65189 | -4.58832 | 35980 ft | 471 kts | 271° |
| 2026-05-07 18:37 | 53.65563 | -4.69874 | 35978 ft | 471 kts | 271° |
| 2026-05-07 18:37 | 53.65926 | -4.80831 | 35968 ft | 470 kts | 271° |
| 2026-05-07 18:38 | 53.66290 | -4.91855 | 35971 ft | 470 kts | 271° |
| 2026-05-07 18:38 | 53.66643 | -5.02881 | 35963 ft | 470 kts | 270° |
| 2026-05-07 18:39 | 53.66982 | -5.13849 | 35962 ft | 470 kts | 270° |
| 2026-05-07 18:39 | 53.67315 | -5.24880 | 35962 ft | 469 kts | 270° |
| 2026-05-07 18:40 | 53.67623 | -5.35817 | 35961 ft | 468 kts | 270° |
| 2026-05-07 18:40 | 53.67922 | -5.46794 | 35959 ft | 468 kts | 270° |
| 2026-05-07 18:41 | 53.68367 | -5.57780 | 35958 ft | 470 kts | 274° |
| 2026-05-07 18:41 | 53.69236 | -5.68734 | 35955 ft | 470 kts | 275° |
| 2026-05-07 18:42 | 53.70120 | -5.79602 | 35956 ft | 470 kts | 275° |
| 2026-05-07 18:42 | 53.70934 | -5.90547 | 35944 ft | 470 kts | 274° |
| 2026-05-07 18:43 | 53.71701 | -6.01503 | 35944 ft | 470 kts | 274° |
| 2026-05-07 18:43 | 53.72451 | -6.12469 | 35939 ft | 470 kts | 274° |
| 2026-05-07 18:44 | 53.73194 | -6.23446 | 35935 ft | 470 kts | 274° |
| 2026-05-07 18:44 | 53.73928 | -6.34419 | 35937 ft | 469 kts | 274° |
| 2026-05-07 18:45 | 53.74653 | -6.45383 | 35933 ft | 469 kts | 274° |
| 2026-05-07 18:45 | 53.75363 | -6.56285 | 35931 ft | 469 kts | 274° |
| 2026-05-07 18:46 | 53.76068 | -6.67264 | 35926 ft | 469 kts | 274° |
| 2026-05-07 18:46 | 53.76762 | -6.78234 | 35925 ft | 469 kts | 274° |
| 2026-05-07 18:47 | 53.77441 | -6.89142 | 35916 ft | 469 kts | 274° |
| 2026-05-07 18:47 | 53.78118 | -7.00155 | 35912 ft | 469 kts | 274° |
| 2026-05-07 18:48 | 53.78777 | -7.11065 | 35929 ft | 469 kts | 274° |
| 2026-05-07 18:48 | 53.79433 | -7.22062 | 35924 ft | 469 kts | 274° |
| 2026-05-07 18:49 | 53.80077 | -7.33060 | 35929 ft | 469 kts | 273° |
| 2026-05-07 18:49 | 53.80706 | -7.43988 | 35914 ft | 469 kts | 273° |
| 2026-05-07 18:50 | 53.81331 | -7.55001 | 35916 ft | 469 kts | 273° |
| 2026-05-07 18:50 | 53.81943 | -7.65953 | 35914 ft | 469 kts | 273° |
| 2026-05-07 18:51 | 53.82548 | -7.76969 | 35913 ft | 469 kts | 273° |
| 2026-05-07 18:51 | 53.83138 | -7.87909 | 35928 ft | 469 kts | 273° |
| 2026-05-07 18:52 | 53.83722 | -7.98914 | 35915 ft | 468 kts | 273° |
| 2026-05-07 18:52 | 53.84295 | -8.09916 | 35914 ft | 468 kts | 272° |
| 2026-05-07 18:53 | 53.84858 | -8.20921 | 35919 ft | 468 kts | 272° |
| 2026-05-07 18:53 | 53.85408 | -8.31867 | 35915 ft | 468 kts | 272° |
| 2026-05-07 18:54 | 53.85951 | -8.42875 | 35924 ft | 468 kts | 272° |
| 2026-05-07 18:54 | 53.86479 | -8.53786 | 35916 ft | 467 kts | 272° |
| 2026-05-07 18:55 | 53.87000 | -8.64748 | 35917 ft | 467 kts | 272° |
| 2026-05-07 18:55 | 53.87511 | -8.75744 | 35916 ft | 467 kts | 272° |
| 2026-05-07 18:56 | 53.88010 | -8.86658 | 35920 ft | 467 kts | 272° |